createdAt,value
2022-10-11T00:00:16.063Z,99064.96
2022-10-11T00:03:04.166Z,99068.59
2022-10-11T00:05:32.669Z,99068.73
2022-10-11T00:08:00.054Z,99071.51
2022-10-11T00:10:27.311Z,99076.52
2022-10-11T00:12:55.055Z,99082.08
2022-10-11T00:15:22.887Z,99083.46
2022-10-11T00:17:50.209Z,99081.39
2022-10-11T00:20:18.152Z,99079.27
2022-10-11T00:22:45.635Z,99080.48
2022-10-11T00:25:12.993Z,99080.12
2022-10-11T00:27:40.479Z,99077.70
2022-10-11T00:30:09.160Z,99077.69
2022-10-11T00:32:38.301Z,99082.03
2022-10-11T00:35:07.239Z,99082.56
2022-10-11T00:37:35.910Z,99087.24
2022-10-11T00:40:07.107Z,99090.89
2022-10-11T00:42:34.584Z,99091.55
2022-10-11T00:45:40.085Z,99089.98
2022-10-11T00:48:17.668Z,99094.34
2022-10-11T00:50:44.806Z,99096.96
2022-10-11T00:53:12.600Z,99097.85
2022-10-11T00:55:47.013Z,99096.77
2022-10-11T00:58:14.966Z,99099.60
2022-10-11T01:00:42.309Z,99098.33
2022-10-11T01:03:10.150Z,99101.64
2022-10-11T01:05:39.494Z,99101.29
2022-10-11T01:08:08.308Z,99102.16
2022-10-11T01:10:35.817Z,99099.05
2022-10-11T01:13:35.948Z,99103.05
2022-10-11T01:16:24.396Z,99103.73
2022-10-11T01:19:07.025Z,99106.66
2022-10-11T01:21:49.026Z,99106.23
2022-10-11T01:24:28.433Z,99108.26
2022-10-11T01:27:25.132Z,99110.50
2022-10-11T01:30:03.393Z,99113.77
2022-10-11T01:32:43.929Z,99111.02
2022-10-11T01:35:28.525Z,99110.69
2022-10-11T01:38:06.016Z,99114.66
2022-10-11T01:40:39.224Z,99122.09
2022-10-11T01:43:06.533Z,99125.73
2022-10-11T01:45:35.146Z,99127.80
2022-10-11T01:48:13.418Z,99132.13
2022-10-11T01:50:47.509Z,99133.53
2022-10-11T01:53:47.861Z,99135.98
2022-10-11T01:56:15.545Z,99140.52
2022-10-11T01:58:51.916Z,99138.09
2022-10-11T02:01:31.558Z,99137.89
2022-10-11T02:04:10.817Z,99139.80
2022-10-11T02:07:05.425Z,99143.98
2022-10-11T02:09:46.286Z,99151.45
2022-10-11T02:12:20.556Z,99156.45
2022-10-11T02:14:51.033Z,99163.03
2022-10-11T02:17:19.680Z,99164.27
2022-10-11T02:19:52.148Z,99166.21
2022-10-11T02:22:24.323Z,99170.61
2022-10-11T02:24:55.469Z,99175.53
2022-10-11T02:27:27.189Z,99179.06
2022-10-11T02:29:58.374Z,99181.00
2022-10-11T02:32:27.350Z,99188.30
2022-10-11T02:34:57.735Z,99193.52
2022-10-11T02:37:32.159Z,99194.59
2022-10-11T02:40:27.794Z,99195.14
2022-10-11T02:43:01.280Z,99199.86
2022-10-11T02:45:38.113Z,99203.88
2022-10-11T02:48:08.356Z,99205.48
2022-10-11T02:50:36.822Z,99207.63
2022-10-11T02:53:04.504Z,99209.03
2022-10-11T02:55:32.280Z,99214.77
2022-10-11T02:58:00.111Z,99217.55
2022-10-11T03:00:27.900Z,99221.20
2022-10-11T03:02:55.690Z,99223.82
2022-10-11T03:05:23.084Z,99227.63
2022-10-11T03:07:50.102Z,99231.27
2022-10-11T03:10:18.778Z,99235.27
2022-10-11T03:12:46.196Z,99236.82
2022-10-11T03:15:13.318Z,99238.69
2022-10-11T03:17:41.144Z,99242.98
2022-10-11T03:20:09.061Z,99240.67
2022-10-11T03:22:36.247Z,99237.86
2022-10-11T03:25:04.777Z,99241.16
2022-10-11T03:27:33.409Z,99242.20
2022-10-11T03:30:00.859Z,99246.36
2022-10-11T03:32:28.641Z,99253.80
2022-10-11T03:34:56.977Z,99255.36
2022-10-11T03:37:24.997Z,99260.07
2022-10-11T03:39:52.325Z,99263.88
2022-10-11T03:42:20.293Z,99261.98
2022-10-11T03:44:49.180Z,99267.70
2022-10-11T03:47:17.101Z,99271.14
2022-10-11T03:49:44.404Z,99274.58
2022-10-11T03:52:11.558Z,99279.23
2022-10-11T03:54:39.079Z,99284.45
2022-10-11T03:57:07.050Z,99284.98
2022-10-11T03:59:34.080Z,99289.66
2022-10-11T04:02:01.447Z,99295.89
2022-10-11T04:04:29.239Z,99296.08
2022-10-11T04:06:56.330Z,99299.71
2022-10-11T04:09:23.549Z,99296.38
2022-10-11T04:11:51.152Z,99300.02
2022-10-11T04:14:18.589Z,99304.37
2022-10-11T04:16:46.076Z,99304.74
2022-10-11T04:19:13.809Z,99308.77
2022-10-11T04:21:41.277Z,99313.67
2022-10-11T04:24:11.125Z,99315.41
2022-10-11T04:26:38.427Z,99315.89
2022-10-11T04:29:05.766Z,99316.59
2022-10-11T04:31:33.225Z,99320.56
2022-10-11T04:34:00.765Z,99325.02
2022-10-11T04:36:28.042Z,99331.80
2022-10-11T04:38:56.182Z,99332.17
2022-10-11T04:41:23.905Z,99338.27
2022-10-11T04:43:51.056Z,99339.14
2022-10-11T04:46:18.380Z,99338.96
2022-10-11T04:48:45.704Z,99342.80
2022-10-11T04:51:12.799Z,99342.79
2022-10-11T04:53:40.206Z,99346.44
2022-10-11T04:56:10.901Z,99350.65
2022-10-11T04:58:42.821Z,99354.20
2022-10-11T05:01:11.332Z,99355.10
2022-10-11T05:03:38.373Z,99352.88
2022-10-11T05:06:06.454Z,99359.48
2022-10-11T05:08:34.009Z,99364.68
2022-10-11T05:11:03.989Z,99366.75
2022-10-11T05:13:32.736Z,99372.30
2022-10-11T05:16:01.055Z,99374.55
2022-10-11T05:18:29.220Z,99375.75
2022-10-11T05:21:06.108Z,99382.00
2022-10-11T05:23:35.530Z,99383.21
2022-10-11T05:26:03.563Z,99389.80
2022-10-11T05:28:31.843Z,99393.64
2022-10-11T05:30:59.598Z,99399.23
2022-10-11T05:33:27.386Z,99400.83
2022-10-11T05:35:54.733Z,99403.29
2022-10-11T05:38:22.561Z,99407.33
2022-10-11T05:40:50.049Z,99409.63
2022-10-11T05:43:17.728Z,99412.94
2022-10-11T05:45:46.130Z,99421.16
2022-10-11T05:48:13.499Z,99425.73
2022-10-11T05:50:41.226Z,99431.81
2022-10-11T05:53:09.018Z,99430.73
2022-10-11T05:55:41.654Z,99437.89
2022-10-11T05:58:14.669Z,99440.72
2022-10-11T06:00:41.993Z,99449.98
2022-10-11T06:03:12.357Z,99460.61
2022-10-11T06:05:40.462Z,99461.99
2022-10-11T06:08:09.540Z,99464.41
2022-10-11T06:10:38.371Z,99473.05
2022-10-11T06:13:07.265Z,99479.10
2022-10-11T06:15:38.355Z,99486.77
2022-10-11T06:18:05.568Z,99488.34
2022-10-11T06:20:33.057Z,99494.92
2022-10-11T06:23:00.761Z,99493.27
2022-10-11T06:25:27.916Z,99495.02
2022-10-11T06:27:55.842Z,99494.92
2022-10-11T06:30:23.899Z,99499.98
2022-10-11T06:32:51.393Z,99505.05
2022-10-11T06:35:18.532Z,99507.77
2022-10-11T06:37:45.733Z,99513.79
2022-10-11T06:40:13.143Z,99519.22
2022-10-11T06:42:40.804Z,99524.53
2022-10-11T06:45:08.520Z,99529.20
2022-10-11T06:47:35.920Z,99534.25
2022-10-11T06:50:03.888Z,99537.25
2022-10-11T06:52:31.255Z,99540.29
2022-10-11T06:54:58.497Z,99541.67
2022-10-11T06:57:27.361Z,99548.41
2022-10-11T06:59:54.784Z,99548.59
2022-10-11T07:02:22.276Z,99552.95
2022-10-11T07:04:49.760Z,99553.64
2022-10-11T07:07:17.383Z,99556.53
2022-10-11T07:09:44.496Z,99563.40
2022-10-11T07:12:12.345Z,99566.23
2022-10-11T07:14:39.877Z,99571.50
2022-10-11T07:17:07.392Z,99577.71
2022-10-11T07:19:35.378Z,99583.02
2022-10-11T07:22:02.651Z,99589.42
2022-10-11T07:24:29.816Z,99591.23
2022-10-11T07:26:57.752Z,99588.99
2022-10-11T07:29:25.163Z,99594.59
2022-10-11T07:31:52.195Z,99593.61
2022-10-11T07:34:20.698Z,99590.25
2022-10-11T07:36:48.473Z,99595.73
2022-10-11T07:39:15.593Z,99600.55
2022-10-11T07:41:45.870Z,99598.31
2022-10-11T07:44:14.320Z,99599.39
2022-10-11T07:46:41.515Z,99607.31
2022-10-11T07:49:22.573Z,99614.33
2022-10-11T07:52:06.260Z,99620.55
2022-10-11T07:54:33.585Z,99620.83
2022-10-11T07:57:01.268Z,99624.80
2022-10-11T07:59:28.729Z,99623.48
2022-10-11T08:01:56.236Z,99626.61
2022-10-11T08:04:23.606Z,99629.66
2022-10-11T08:06:53.317Z,99633.60
2022-10-11T08:09:20.864Z,99635.94
2022-10-11T08:11:48.230Z,99636.94
2022-10-11T08:14:15.345Z,99638.84
2022-10-11T08:16:42.596Z,99642.43
2022-10-11T08:19:10.765Z,99645.30
2022-10-11T08:21:38.250Z,99646.79
2022-10-11T08:24:06.724Z,99647.08
2022-10-11T08:26:34.793Z,99649.98
2022-10-11T08:29:03.102Z,99648.77
2022-10-11T08:31:31.936Z,99652.91
2022-10-11T08:33:59.512Z,99655.28
2022-10-11T08:36:26.886Z,99654.96
2022-10-11T08:38:54.108Z,99656.41
2022-10-11T08:41:55.379Z,99658.45
2022-10-11T08:45:05.888Z,99664.52
2022-10-11T08:47:43.678Z,99660.72
2022-10-11T08:50:19.572Z,99662.98
2022-10-11T08:52:56.357Z,99665.44
2022-10-11T08:55:43.609Z,99662.48
2022-10-11T08:58:16.564Z,99663.96
2022-10-11T09:00:47.926Z,99664.50
2022-10-11T09:03:37.621Z,99664.31
2022-10-11T09:06:24.127Z,99668.46
2022-10-11T09:09:30.105Z,99672.69
2022-10-11T09:12:03.265Z,99672.65
2022-10-11T09:14:43.421Z,99679.79
2022-10-11T09:17:32.176Z,99679.27
2022-10-11T09:20:26.045Z,99676.17
2022-10-11T09:23:03.771Z,99676.61
2022-10-11T09:25:44.203Z,99678.91
2022-10-11T09:28:30.361Z,99679.49
2022-10-11T09:30:58.926Z,99685.54
2022-10-11T09:33:34.078Z,99683.91
2022-10-11T09:36:11.741Z,99677.63
2022-10-11T09:38:46.100Z,99677.20
2022-10-11T09:41:16.709Z,99682.27
2022-10-11T09:43:52.245Z,99679.05
2022-10-11T09:46:30.470Z,99681.55
2022-10-11T09:48:59.885Z,99680.58
2022-10-11T09:51:27.935Z,99683.17
2022-10-11T09:54:00.660Z,99679.95
2022-10-11T09:56:30.702Z,99672.73
2022-10-11T09:59:20.966Z,99671.92
2022-10-11T10:01:50.206Z,99674.41
2022-10-11T10:04:17.764Z,99672.83
2022-10-11T10:06:44.986Z,99671.63
2022-10-11T10:09:25.701Z,99674.61
2022-10-11T10:11:55.644Z,99678.10
2022-10-11T10:14:30.668Z,99677.75
2022-10-11T10:17:06.466Z,99677.92
2022-10-11T10:19:51.457Z,99677.77
2022-10-11T10:22:27.431Z,99676.36
2022-10-11T10:24:57.108Z,99681.43
2022-10-11T10:27:27.242Z,99684.93
2022-10-11T10:30:09.801Z,99684.05
2022-10-11T10:32:53.016Z,99681.08
2022-10-11T10:35:45.456Z,99683.36
2022-10-11T10:38:28.050Z,99684.92
2022-10-11T10:41:04.531Z,99683.17
2022-10-11T10:43:37.431Z,99686.65
2022-10-11T10:46:36.418Z,99679.84
2022-10-11T10:49:52.544Z,99678.63
2022-10-11T10:52:44.944Z,99681.08
2022-10-11T10:55:42.391Z,99683.36
2022-10-11T10:58:42.435Z,99683.35
2022-10-11T11:01:23.605Z,99684.05
2022-10-11T11:04:28.981Z,99679.14
2022-10-11T11:07:13.965Z,99676.31
2022-10-11T11:09:50.355Z,99676.60
2022-10-11T11:12:30.859Z,99675.00
2022-10-11T11:15:02.262Z,99675.51
2022-10-11T11:17:35.420Z,99677.42
2022-10-11T11:20:18.120Z,99677.03
2022-10-11T11:22:59.429Z,99675.14
2022-10-11T11:25:51.343Z,99674.58
2022-10-11T11:28:30.492Z,99675.39
2022-10-11T11:31:49.005Z,99676.94
2022-10-11T11:34:24.213Z,99677.52
2022-10-11T11:37:00.054Z,99678.44
2022-10-11T11:39:43.058Z,99676.39
2022-10-11T11:42:48.205Z,99673.95
2022-10-11T11:45:23.557Z,99679.38
2022-10-11T11:48:05.285Z,99675.58
2022-10-11T11:50:44.683Z,99678.40
2022-10-11T11:53:16.194Z,99675.79
2022-10-11T11:55:52.493Z,99669.80
2022-10-11T11:58:46.115Z,99672.23
2022-10-11T12:01:39.315Z,99671.86
2022-10-11T12:04:20.734Z,99675.17
2022-10-11T12:07:15.782Z,99675.02
2022-10-11T12:09:50.287Z,99676.46
2022-10-11T12:12:36.120Z,99675.25
2022-10-11T12:15:11.829Z,99674.03
2022-10-11T12:18:16.200Z,99671.89
2022-10-11T12:20:44.196Z,99669.40
2022-10-11T12:23:30.670Z,99665.92
2022-10-11T12:26:28.873Z,99664.89
2022-10-11T12:29:05.609Z,99669.95
2022-10-11T12:31:35.760Z,99667.15
2022-10-11T12:34:16.657Z,99664.88
2022-10-11T12:36:47.572Z,99662.13
2022-10-11T12:39:17.960Z,99663.17
2022-10-11T12:41:53.590Z,99664.54
2022-10-11T12:44:26.320Z,99664.00
2022-10-11T12:46:54.338Z,99659.80
2022-10-11T12:49:28.048Z,99657.88
2022-10-11T12:52:20.049Z,99660.32
2022-10-11T12:54:59.877Z,99659.95
2022-10-11T12:57:46.203Z,99661.69
2022-10-11T13:00:28.609Z,99658.35
2022-10-11T13:03:02.897Z,99657.64
2022-10-11T13:05:44.994Z,99657.83
2022-10-11T13:08:25.904Z,99654.70
2022-10-11T13:10:55.345Z,99654.35
2022-10-11T13:13:41.330Z,99660.10
2022-10-11T13:16:16.796Z,99663.59
2022-10-11T13:18:47.464Z,99663.73
2022-10-11T13:21:25.444Z,99663.23
2022-10-11T13:24:00.336Z,99662.19
2022-10-11T13:26:29.841Z,99660.43
2022-10-11T13:28:59.679Z,99656.57
2022-10-11T13:31:27.524Z,99656.04
2022-10-11T13:33:58.737Z,99660.42
2022-10-11T13:36:27.393Z,99655.54
2022-10-11T13:38:58.584Z,99653.42
2022-10-11T13:41:28.781Z,99648.17
2022-10-11T13:43:57.917Z,99648.70
2022-10-11T13:46:27.991Z,99647.09
2022-10-11T13:49:04.136Z,99647.77
2022-10-11T13:51:37.199Z,99644.26
2022-10-11T13:54:06.165Z,99642.35
2022-10-11T13:56:45.992Z,99643.58
2022-10-11T13:59:23.088Z,99642.70
2022-10-11T14:01:57.414Z,99647.77
2022-10-11T14:04:29.524Z,99651.40
2022-10-11T14:07:02.006Z,99653.99
2022-10-11T14:09:36.481Z,99650.66
2022-10-11T14:12:27.902Z,99647.16
2022-10-11T14:14:55.357Z,99646.96
2022-10-11T14:17:43.660Z,99648.88
2022-10-11T14:20:33.403Z,99645.36
2022-10-11T14:23:00.965Z,99646.21
2022-10-11T14:25:28.727Z,99646.19
2022-10-11T14:27:56.316Z,99647.23
2022-10-11T14:30:27.326Z,99647.79
2022-10-11T14:32:57.540Z,99650.06
2022-10-11T14:35:32.129Z,99650.40
2022-10-11T14:38:00.304Z,99651.59
2022-10-11T14:40:30.084Z,99653.13
2022-10-11T14:42:57.951Z,99654.16
2022-10-11T14:45:27.137Z,99654.49
2022-10-11T14:47:55.330Z,99648.86
2022-10-11T14:50:36.579Z,99649.01
2022-10-11T14:53:05.513Z,99647.08
2022-10-11T14:55:35.275Z,99644.81
2022-10-11T14:58:03.001Z,99647.96
2022-10-11T15:00:31.321Z,99651.11
2022-10-11T15:02:59.227Z,99652.70
2022-10-11T15:05:33.506Z,99650.60
2022-10-11T15:08:05.768Z,99653.52
2022-10-11T15:10:40.568Z,99655.56
2022-10-11T15:13:08.783Z,99662.34
2022-10-11T15:15:40.560Z,99663.89
2022-10-11T15:18:12.353Z,99661.91
2022-10-11T15:20:43.127Z,99664.30
2022-10-11T15:23:10.792Z,99662.32
2022-10-11T15:25:41.425Z,99662.09
2022-10-11T15:28:19.757Z,99663.07
2022-10-11T15:30:47.103Z,99663.34
2022-10-11T15:33:14.333Z,99664.16
2022-10-11T15:35:41.737Z,99660.82
2022-10-11T15:38:17.446Z,99663.02
2022-10-11T15:40:46.875Z,99664.36
2022-10-11T15:43:15.498Z,99664.48
2022-10-11T15:45:43.543Z,99667.19
2022-10-11T15:48:15.552Z,99666.07
2022-10-11T15:50:42.700Z,99667.53
2022-10-11T15:53:18.901Z,99665.70
2022-10-11T15:55:51.410Z,99666.85
2022-10-11T15:58:21.971Z,99669.42
2022-10-11T16:00:55.507Z,99669.17
2022-10-11T16:03:26.026Z,99673.45
2022-10-11T16:05:54.343Z,99678.58
2022-10-11T16:08:22.104Z,99676.59
2022-10-11T16:10:50.473Z,99673.38
2022-10-11T16:13:17.944Z,99675.04
2022-10-11T16:15:46.036Z,99681.37
2022-10-11T16:18:15.690Z,99682.16
2022-10-11T16:20:46.842Z,99682.07
2022-10-11T16:23:14.911Z,99684.93
2022-10-11T16:25:43.090Z,99686.59
2022-10-11T16:28:10.648Z,99685.63
2022-10-11T16:30:45.507Z,99687.77
2022-10-11T16:33:13.457Z,99689.44
2022-10-11T16:35:41.801Z,99690.19
2022-10-11T16:38:09.876Z,99694.27
2022-10-11T16:40:38.939Z,99690.67
2022-10-11T16:43:07.975Z,99694.77
2022-10-11T16:45:36.111Z,99694.71
2022-10-11T16:48:04.345Z,99697.80
2022-10-11T16:50:34.482Z,99699.59
2022-10-11T16:53:06.069Z,99702.45
2022-10-11T16:55:33.120Z,99702.02
2022-10-11T16:58:00.150Z,99703.32
2022-10-11T17:00:27.912Z,99702.17
2022-10-11T17:03:07.165Z,99700.84
2022-10-11T17:06:10.630Z,99705.27
2022-10-11T17:09:00.797Z,99709.88
2022-10-11T17:11:56.602Z,99710.17
2022-10-11T17:14:51.847Z,99709.09
2022-10-11T17:17:52.290Z,99712.62
2022-10-11T17:20:40.937Z,99716.64
2022-10-11T17:23:32.769Z,99717.45
2022-10-11T17:26:31.192Z,99716.29
2022-10-11T17:29:21.635Z,99720.52
2022-10-11T17:32:14.106Z,99717.71
2022-10-11T17:35:15.855Z,99714.45
2022-10-11T17:37:53.215Z,99717.55
2022-10-11T17:40:21.103Z,99717.71
2022-10-11T17:42:48.254Z,99721.92
2022-10-11T17:45:15.711Z,99719.88
2022-10-11T17:47:43.792Z,99717.85
2022-10-11T17:50:11.124Z,99720.86
2022-10-11T17:52:38.239Z,99720.38
2022-10-11T17:55:06.393Z,99719.68
2022-10-11T17:57:33.452Z,99723.70
2022-10-11T18:00:03.511Z,99721.27
2022-10-11T18:02:34.704Z,99723.69
2022-10-11T18:05:02.926Z,99722.46
2022-10-11T18:07:30.034Z,99721.79
2022-10-11T18:09:57.854Z,99727.55
2022-10-11T18:12:25.691Z,99728.41
2022-10-11T18:14:52.792Z,99728.74
2022-10-11T18:17:20.415Z,99729.00
2022-10-11T18:19:47.810Z,99730.36
2022-10-11T18:22:14.829Z,99728.41
2022-10-11T18:24:42.595Z,99731.00
2022-10-11T18:27:10.095Z,99732.00
2022-10-11T18:29:37.178Z,99730.02
2022-10-11T18:32:05.104Z,99734.86
2022-10-11T18:34:33.072Z,99733.88
2022-10-11T18:37:00.452Z,99736.73
2022-10-11T18:39:28.186Z,99736.52
2022-10-11T18:41:55.302Z,99733.83
2022-10-11T18:44:22.672Z,99734.36
2022-10-11T18:46:51.088Z,99734.55
2022-10-11T18:49:18.062Z,99735.97
2022-10-11T18:51:46.105Z,99734.98
2022-10-11T18:54:18.427Z,99735.92
2022-10-11T18:56:48.731Z,99736.55
2022-10-11T18:59:16.366Z,99737.27
2022-10-11T19:01:44.352Z,99739.73
2022-10-11T19:04:13.260Z,99737.84
2022-10-11T19:06:44.189Z,99735.71
2022-10-11T19:09:14.555Z,99737.71
2022-10-11T19:11:41.806Z,99740.36
2022-10-11T19:14:15.260Z,99737.85
2022-10-11T19:16:45.919Z,99737.89
2022-10-11T19:19:12.911Z,99736.65
2022-10-11T19:21:40.783Z,99735.41
2022-10-11T19:24:08.799Z,99732.38
2022-10-11T19:26:40.537Z,99729.01
2022-10-11T19:29:09.966Z,99734.44
2022-10-11T19:31:44.801Z,99734.04
2022-10-11T19:34:13.224Z,99731.70
2022-10-11T19:36:42.427Z,99733.05
2022-10-11T19:39:15.114Z,99732.70
2022-10-11T19:41:43.373Z,99735.63
2022-10-11T19:44:12.049Z,99734.42
2022-10-11T19:46:55.141Z,99733.56
2022-10-11T19:49:24.452Z,99734.80
2022-10-11T19:51:55.222Z,99732.21
2022-10-11T19:54:23.300Z,99734.80
2022-10-11T19:56:51.361Z,99738.52
2022-10-11T19:59:19.561Z,99741.40
2022-10-11T20:01:51.984Z,99746.73
2022-10-11T20:07:08.541Z,99747.13
2022-10-11T20:09:36.732Z,99749.84
2022-10-11T20:12:04.187Z,99750.48
2022-10-11T20:14:31.289Z,99750.95
2022-10-11T20:16:59.120Z,99743.92
2022-10-11T20:19:30.555Z,99747.65
2022-10-11T20:22:00.257Z,99748.55
2022-10-11T20:24:31.908Z,99752.21
2022-10-11T20:26:59.015Z,99748.38
2022-10-11T20:29:27.336Z,99745.09
2022-10-11T20:31:55.887Z,99746.09
2022-10-11T20:34:23.108Z,99745.59
2022-10-11T20:36:50.668Z,99749.31
2022-10-11T20:39:18.401Z,99755.13
2022-10-11T20:41:46.264Z,99753.17
2022-10-11T20:44:15.918Z,99760.80
2022-10-11T20:46:43.492Z,99761.64
2022-10-11T20:49:11.495Z,99759.86
2022-10-11T20:51:41.419Z,99760.34
2022-10-11T20:54:08.841Z,99761.52
2022-10-11T20:56:36.250Z,99758.30
2022-10-11T20:59:04.210Z,99754.81
2022-10-11T21:01:38.197Z,99753.14
2022-10-11T21:04:07.465Z,99756.46
2022-10-11T21:06:34.633Z,99756.74
2022-10-11T21:09:01.999Z,99757.40
2022-10-11T21:11:31.914Z,99758.19
2022-10-11T21:14:01.256Z,99758.20
2022-10-11T21:16:28.486Z,99759.24
2022-10-11T21:18:57.027Z,99758.86
2022-10-11T21:21:25.756Z,99758.64
2022-10-11T21:23:54.186Z,99759.78
2022-10-11T21:26:21.857Z,99759.66
2022-10-11T21:28:49.363Z,99759.16
2022-10-11T21:31:18.655Z,99761.01
2022-10-11T21:33:46.031Z,99762.16
2022-10-11T21:36:17.817Z,99758.06
2022-10-11T21:38:45.673Z,99759.95
2022-10-11T21:41:17.524Z,99758.86
2022-10-11T21:43:45.989Z,99759.10
2022-10-11T21:46:22.487Z,99753.39
2022-10-11T21:48:50.216Z,99756.62
2022-10-11T21:51:26.504Z,99754.11
2022-10-11T21:53:55.832Z,99752.61
2022-10-11T21:56:23.538Z,99751.62
2022-10-11T21:58:50.927Z,99753.30
2022-10-11T22:01:19.823Z,99752.84
2022-10-11T22:03:47.982Z,99753.98
2022-10-11T22:06:16.219Z,99752.72
2022-10-11T22:08:43.877Z,99751.84
2022-10-11T22:11:11.597Z,99753.69
2022-10-11T22:13:38.954Z,99753.18
2022-10-11T22:16:09.136Z,99748.05
2022-10-11T22:18:36.523Z,99748.55
2022-10-11T22:21:14.434Z,99748.34
2022-10-11T22:23:44.157Z,99747.94
2022-10-11T22:26:14.582Z,99746.92
2022-10-11T22:28:42.067Z,99744.43
2022-10-11T22:31:10.170Z,99741.88
2022-10-11T22:33:38.002Z,99740.61
2022-10-11T22:36:11.810Z,99741.63
2022-10-11T22:38:40.848Z,99744.36
2022-10-11T22:41:09.222Z,99748.62
2022-10-11T22:43:36.871Z,99747.17
2022-10-11T22:46:05.627Z,99748.76
2022-10-11T22:48:33.048Z,99745.20
2022-10-11T22:51:01.013Z,99744.61
2022-10-11T22:53:28.867Z,99744.64
2022-10-11T22:55:56.131Z,99749.01
2022-10-11T22:58:23.513Z,99747.19
2022-10-11T23:00:50.998Z,99750.62
2022-10-11T23:03:19.123Z,99755.80
2022-10-11T23:05:57.467Z,99754.13
2022-10-11T23:08:25.579Z,99751.23
2022-10-11T23:10:53.298Z,99750.93
2022-10-11T23:13:21.155Z,99751.02
2022-10-11T23:15:49.064Z,99748.34
2022-10-11T23:18:16.742Z,99746.23
2022-10-11T23:20:44.457Z,99749.57
2022-10-11T23:23:12.046Z,99747.05
2022-10-11T23:25:39.213Z,99748.65
2022-10-11T23:28:06.509Z,99753.19
2022-10-11T23:30:34.378Z,99758.19
2022-10-11T23:33:01.594Z,99758.98
2022-10-11T23:35:28.724Z,99757.02
2022-10-11T23:37:56.400Z,99754.86
2022-10-11T23:40:23.412Z,99752.38
2022-10-11T23:42:50.850Z,99756.89
2022-10-11T23:45:18.429Z,99756.73
2022-10-11T23:47:45.446Z,99756.73
2022-10-11T23:50:12.848Z,99751.98
2022-10-11T23:52:40.290Z,99753.58
2022-10-11T23:55:07.920Z,99757.32
2022-10-11T23:57:35.469Z,99755.80
